createdAt,value
2019-02-25T00:00:41.496Z,14.03
2019-02-25T00:03:09.150Z,13.07
2019-02-25T00:05:36.819Z,11.50
2019-02-25T00:08:04.748Z,10.73
2019-02-25T00:10:32.413Z,10.17
2019-02-25T00:13:00.170Z,10.70
2019-02-25T00:15:27.833Z,12.30
2019-02-25T00:17:55.510Z,11.33
2019-02-25T00:20:23.170Z,10.67
2019-02-25T00:22:50.841Z,10.53
2019-02-25T00:25:18.507Z,12.30
2019-02-25T00:27:46.159Z,12.07
2019-02-25T00:30:13.821Z,14.00
2019-02-25T00:32:41.483Z,14.67
2019-02-25T00:35:09.150Z,22.77
2019-02-25T00:37:36.844Z,49.57
2019-02-25T00:40:04.507Z,29.50
2019-02-25T00:42:32.170Z,21.13
2019-02-25T00:44:59.837Z,35.40
2019-02-25T00:47:27.514Z,40.77
2019-02-25T00:49:55.172Z,40.70
2019-02-25T00:52:22.843Z,43.67
2019-02-25T00:54:50.510Z,31.30
2019-02-25T00:57:18.172Z,20.73
2019-02-25T00:59:45.836Z,10.03
2019-02-25T01:02:13.506Z,14.97
2019-02-25T01:04:41.158Z,12.53
2019-02-25T01:07:08.833Z,12.47
2019-02-25T01:09:36.646Z,11.17
2019-02-25T01:12:04.724Z,10.53
2019-02-25T01:14:32.386Z,9.27
2019-02-25T01:17:00.051Z,8.87
2019-02-25T01:19:27.698Z,10.30
2019-02-25T01:21:55.361Z,11.80
2019-02-25T01:24:23.022Z,12.93
2019-02-25T01:26:50.692Z,13.47
2019-02-25T01:29:18.344Z,11.90
2019-02-25T01:31:46.012Z,15.37
2019-02-25T01:34:13.666Z,12.00
2019-02-25T01:36:41.335Z,13.80
2019-02-25T01:39:09.178Z,10.53
2019-02-25T01:41:36.843Z,13.60
2019-02-25T01:44:04.503Z,10.80
2019-02-25T01:46:32.163Z,8.80
2019-02-25T01:48:59.813Z,10.33
2019-02-25T01:51:27.476Z,10.27
2019-02-25T01:53:55.132Z,10.77
2019-02-25T01:56:22.798Z,10.73
2019-02-25T01:58:50.466Z,10.50
2019-02-25T02:01:18.137Z,12.90
2019-02-25T02:03:45.865Z,8.97
2019-02-25T02:06:13.531Z,12.90
2019-02-25T02:08:41.194Z,10.87
2019-02-25T02:11:08.861Z,10.40
2019-02-25T02:13:36.513Z,10.80
2019-02-25T02:16:04.181Z,9.97
2019-02-25T02:18:31.829Z,8.63
2019-02-25T02:20:59.494Z,8.00
2019-02-25T02:23:27.149Z,11.47
2019-02-25T02:25:54.806Z,8.77
2019-02-25T02:28:22.466Z,10.27
2019-02-25T02:30:50.127Z,9.27
2019-02-25T02:33:17.783Z,7.80
2019-02-25T02:35:45.435Z,9.53
2019-02-25T02:38:13.104Z,10.10
2019-02-25T02:40:40.759Z,10.07
2019-02-25T02:43:08.417Z,10.43
2019-02-25T02:45:36.077Z,11.27
2019-02-25T02:48:03.744Z,11.53
2019-02-25T02:50:31.411Z,11.23
2019-02-25T02:52:59.078Z,12.03
2019-02-25T02:55:26.750Z,11.97
2019-02-25T02:57:54.494Z,10.33
2019-02-25T03:00:22.140Z,9.23
2019-02-25T03:02:49.805Z,12.30
2019-02-25T03:05:17.488Z,12.83
2019-02-25T03:07:45.215Z,10.97
2019-02-25T03:10:12.885Z,11.60
2019-02-25T03:12:40.543Z,12.17
2019-02-25T03:15:08.196Z,12.50
2019-02-25T03:17:35.855Z,9.23
2019-02-25T03:20:03.689Z,9.63
2019-02-25T03:22:31.349Z,8.80
2019-02-25T03:24:59.018Z,11.40
2019-02-25T03:27:26.674Z,17.27
2019-02-25T03:29:54.330Z,10.27
2019-02-25T03:32:21.996Z,11.97
2019-02-25T03:34:49.667Z,13.23
2019-02-25T03:37:17.320Z,11.97
2019-02-25T03:39:45.159Z,8.27
2019-02-25T03:42:12.819Z,10.60
2019-02-25T03:44:40.477Z,11.80
2019-02-25T03:47:08.153Z,12.70
2019-02-25T03:49:35.805Z,10.27
2019-02-25T03:52:03.471Z,14.17
2019-02-25T03:54:31.137Z,8.60
2019-02-25T03:56:58.800Z,10.60
2019-02-25T03:59:26.454Z,9.43
2019-02-25T04:01:54.106Z,10.83
2019-02-25T04:04:21.752Z,7.60
2019-02-25T04:06:49.534Z,10.93
2019-02-25T04:09:17.199Z,10.23
2019-02-25T04:11:44.856Z,14.97
2019-02-25T04:14:12.509Z,11.37
2019-02-25T04:16:40.171Z,11.50
2019-02-25T04:19:07.858Z,12.23
2019-02-25T04:21:35.514Z,15.47
2019-02-25T04:24:03.258Z,10.27
2019-02-25T04:26:31.034Z,14.23
2019-02-25T04:28:58.707Z,11.67
2019-02-25T04:31:26.363Z,13.33
2019-02-25T04:33:54.041Z,10.37
2019-02-25T04:36:21.695Z,12.30
2019-02-25T04:38:49.369Z,10.47
2019-02-25T04:41:17.040Z,11.87
2019-02-25T04:43:44.708Z,13.53
2019-02-25T04:46:12.367Z,11.90
2019-02-25T04:48:40.031Z,11.87
2019-02-25T04:51:07.693Z,13.10
2019-02-25T04:53:35.346Z,17.57
2019-02-25T04:56:03.004Z,13.27
2019-02-25T04:58:30.669Z,10.80
2019-02-25T05:00:58.333Z,14.83
2019-02-25T05:03:25.996Z,13.13
2019-02-25T05:05:53.652Z,13.40
2019-02-25T05:08:21.401Z,14.10
2019-02-25T05:10:49.063Z,12.33
2019-02-25T05:13:16.718Z,10.27
2019-02-25T05:15:44.379Z,11.93
2019-02-25T05:18:12.050Z,12.23
2019-02-25T05:20:39.709Z,14.83
2019-02-25T05:23:07.365Z,13.03
2019-02-25T05:25:35.041Z,12.67
2019-02-25T05:28:02.695Z,12.00
2019-02-25T05:30:30.357Z,12.20
2019-02-25T05:32:58.034Z,11.67
2019-02-25T05:35:25.763Z,11.60
2019-02-25T05:37:53.420Z,11.20
2019-02-25T05:40:21.076Z,9.40
2019-02-25T05:42:48.758Z,17.03
2019-02-25T05:45:16.490Z,13.13
2019-02-25T05:47:44.231Z,12.17
2019-02-25T05:50:11.882Z,15.10
2019-02-25T05:52:39.551Z,17.53
2019-02-25T05:55:07.206Z,13.00
2019-02-25T05:57:34.860Z,11.47
2019-02-25T06:00:02.531Z,11.53
2019-02-25T06:02:30.199Z,11.60
2019-02-25T06:04:57.864Z,14.07
2019-02-25T06:07:25.526Z,10.80
2019-02-25T06:09:53.185Z,14.90
2019-02-25T06:12:20.847Z,12.57
2019-02-25T06:14:48.510Z,13.73
2019-02-25T06:17:16.170Z,17.50
2019-02-25T06:19:43.840Z,13.50
2019-02-25T06:22:11.503Z,12.47
2019-02-25T06:24:39.235Z,12.73
2019-02-25T06:27:06.904Z,14.07
2019-02-25T06:29:34.572Z,21.97
2019-02-25T06:32:02.235Z,17.87
2019-02-25T06:34:29.892Z,19.73
2019-02-25T06:36:57.553Z,16.13
2019-02-25T06:39:25.239Z,14.93
2019-02-25T06:41:52.981Z,14.97
2019-02-25T06:44:20.656Z,13.43
2019-02-25T06:46:48.577Z,13.93
2019-02-25T06:49:16.379Z,15.10
2019-02-25T06:51:44.040Z,16.23
2019-02-25T06:54:11.717Z,11.10
2019-02-25T06:56:39.370Z,16.77
2019-02-25T06:59:07.031Z,13.67
2019-02-25T07:01:34.688Z,11.20
2019-02-25T07:04:14.862Z,15.13
2019-02-25T07:06:55.342Z,11.77
2019-02-25T07:09:32.534Z,14.93
2019-02-25T07:12:10.328Z,19.60
2019-02-25T07:14:44.750Z,15.27
2019-02-25T07:17:17.680Z,16.27
2019-02-25T07:19:56.664Z,12.43
2019-02-25T07:22:43.423Z,12.93
2019-02-25T07:25:16.327Z,15.67
2019-02-25T07:28:00.100Z,18.70
2019-02-25T07:30:34.632Z,14.10
2019-02-25T07:33:13.655Z,13.97
2019-02-25T07:35:51.660Z,11.13
2019-02-25T07:38:39.422Z,12.77
2019-02-25T07:41:19.244Z,12.17
2019-02-25T07:43:54.478Z,13.53
2019-02-25T07:46:30.637Z,14.50
2019-02-25T07:49:05.684Z,17.00
2019-02-25T07:51:38.978Z,12.83
2019-02-25T07:54:26.613Z,12.77
2019-02-25T07:57:00.725Z,13.17
2019-02-25T07:59:33.910Z,11.53
2019-02-25T08:02:08.734Z,11.97
2019-02-25T08:04:42.641Z,11.10
2019-02-25T08:07:21.471Z,12.30
2019-02-25T08:10:01.650Z,13.23
2019-02-25T08:12:41.474Z,11.77
2019-02-25T08:15:14.487Z,13.30
2019-02-25T08:17:59.226Z,14.03
2019-02-25T08:20:36.822Z,13.40
2019-02-25T08:23:18.494Z,10.77
2019-02-25T08:25:58.660Z,17.03
2019-02-25T08:28:36.875Z,16.83
2019-02-25T08:31:16.210Z,16.67
2019-02-25T08:33:55.459Z,12.07
2019-02-25T08:36:43.951Z,11.13
2019-02-25T08:39:19.233Z,15.50
2019-02-25T08:41:52.063Z,9.70
2019-02-25T08:44:31.633Z,10.40
2019-02-25T08:47:05.782Z,14.57
2019-02-25T08:49:39.176Z,11.80
2019-02-25T08:52:06.850Z,10.43
2019-02-25T08:54:34.548Z,12.93
2019-02-25T08:57:02.214Z,10.60
2019-02-25T08:59:29.863Z,9.83
2019-02-25T09:01:57.522Z,10.40
2019-02-25T09:04:25.173Z,11.70
2019-02-25T09:06:53.148Z,10.00
2019-02-25T09:09:20.804Z,9.63
2019-02-25T09:11:48.482Z,9.27
2019-02-25T09:14:16.187Z,13.13
2019-02-25T09:16:43.839Z,9.03
2019-02-25T09:19:11.502Z,9.87
2019-02-25T09:21:39.169Z,12.43
2019-02-25T09:24:06.834Z,10.33
2019-02-25T09:26:34.566Z,9.87
2019-02-25T09:29:02.238Z,10.87
2019-02-25T09:31:29.894Z,8.37
2019-02-25T09:33:57.560Z,8.57
2019-02-25T09:36:25.724Z,7.83
2019-02-25T09:38:53.445Z,15.07
2019-02-25T09:41:29.689Z,9.67
2019-02-25T09:43:50.449Z,9.07
2019-02-25T09:46:18.085Z,9.17
2019-02-25T09:48:46.985Z,11.57
2019-02-25T09:51:14.638Z,8.40
2019-02-25T09:53:42.314Z,11.63
2019-02-25T09:56:09.975Z,7.33
2019-02-25T09:58:37.635Z,10.63
2019-02-25T10:01:05.290Z,8.83
2019-02-25T10:03:32.958Z,8.83
2019-02-25T10:06:00.599Z,8.77
2019-02-25T10:08:28.255Z,10.07
2019-02-25T10:10:55.909Z,13.40
2019-02-25T10:13:23.566Z,8.43
2019-02-25T10:15:51.216Z,8.27
2019-02-25T10:18:18.870Z,8.40
2019-02-25T10:20:46.549Z,7.33
2019-02-25T10:23:14.213Z,8.57
2019-02-25T10:25:41.876Z,10.77
2019-02-25T10:28:09.536Z,10.47
2019-02-25T10:30:37.263Z,9.63
2019-02-25T10:33:04.939Z,9.53
2019-02-25T10:35:32.610Z,10.67
2019-02-25T10:38:01.137Z,12.90
2019-02-25T10:40:29.641Z,10.33
2019-02-25T10:42:57.301Z,13.50
2019-02-25T10:45:24.989Z,10.37
2019-02-25T10:47:57.639Z,9.13
2019-02-25T10:50:22.077Z,9.27
2019-02-25T10:52:49.773Z,8.13
2019-02-25T10:55:17.490Z,8.93
2019-02-25T10:57:45.150Z,8.30
2019-02-25T11:00:13.837Z,10.00
2019-02-25T11:02:44.229Z,10.13
2019-02-25T11:05:11.001Z,8.10
2019-02-25T11:07:39.815Z,8.10
2019-02-25T11:10:18.690Z,8.83
2019-02-25T11:12:46.261Z,7.50
2019-02-25T11:15:15.917Z,9.30
2019-02-25T11:17:45.397Z,9.83
2019-02-25T11:20:13.122Z,6.80
2019-02-25T11:22:42.422Z,12.77
2019-02-25T11:25:10.193Z,9.80
2019-02-25T11:27:39.879Z,8.17
2019-02-25T11:30:07.238Z,8.93
2019-02-25T11:32:34.902Z,8.60
2019-02-25T11:35:04.063Z,9.27
2019-02-25T11:37:31.945Z,7.80
2019-02-25T11:40:01.652Z,8.47
2019-02-25T11:42:28.999Z,7.93
2019-02-25T11:44:59.108Z,7.63
2019-02-25T11:47:26.022Z,9.90
2019-02-25T11:49:53.693Z,5.97
2019-02-25T11:52:21.350Z,10.13
2019-02-25T11:54:49.042Z,8.23
2019-02-25T11:57:16.697Z,7.00
2019-02-25T11:59:44.370Z,4.97
2019-02-25T12:02:12.026Z,5.67
2019-02-25T12:04:39.725Z,5.67
2019-02-25T12:07:07.461Z,6.80
2019-02-25T12:09:35.123Z,5.50
2019-02-25T12:12:02.791Z,5.07
2019-02-25T12:14:30.456Z,4.80
2019-02-25T12:16:58.134Z,7.33
2019-02-25T12:19:25.800Z,4.93
2019-02-25T12:21:53.457Z,5.27
2019-02-25T12:24:21.109Z,5.27
2019-02-25T12:26:48.776Z,8.13
2019-02-25T12:29:16.459Z,7.67
2019-02-25T12:31:44.146Z,7.00
2019-02-25T12:34:11.819Z,6.23
2019-02-25T12:36:39.486Z,8.80
2019-02-25T12:39:07.155Z,6.90
2019-02-25T12:41:34.830Z,7.37
2019-02-25T12:44:02.495Z,7.03
2019-02-25T12:46:30.166Z,10.30
2019-02-25T12:48:57.849Z,7.27
2019-02-25T12:51:25.505Z,8.53
2019-02-25T12:53:53.166Z,9.40
2019-02-25T12:56:20.825Z,7.33
2019-02-25T12:58:48.487Z,7.03
2019-02-25T13:01:16.151Z,7.17
2019-02-25T13:03:43.815Z,8.53
2019-02-25T13:06:11.488Z,6.77
2019-02-25T13:08:39.153Z,8.17
2019-02-25T13:11:06.810Z,6.60
2019-02-25T13:13:34.464Z,9.23
2019-02-25T13:16:02.148Z,10.90
2019-02-25T13:18:29.897Z,7.33
2019-02-25T13:20:57.594Z,7.57
2019-02-25T13:23:25.317Z,9.07
2019-02-25T13:25:52.966Z,8.00
2019-02-25T13:28:21.386Z,7.80
2019-02-25T13:30:50.007Z,6.53
2019-02-25T13:33:17.674Z,7.80
2019-02-25T13:35:45.427Z,8.93
2019-02-25T13:38:13.595Z,9.50
2019-02-25T13:40:41.351Z,9.47
2019-02-25T13:43:09.104Z,7.53
2019-02-25T13:45:36.842Z,9.13
2019-02-25T13:48:04.598Z,7.70
2019-02-25T13:50:32.352Z,7.40
2019-02-25T13:53:00.102Z,7.70
2019-02-25T13:55:27.851Z,6.97
2019-02-25T13:57:57.522Z,6.50
2019-02-25T14:00:25.089Z,7.90
2019-02-25T14:02:52.836Z,7.30
2019-02-25T14:05:20.577Z,7.30
2019-02-25T14:07:48.317Z,8.57
2019-02-25T14:10:16.068Z,6.47
2019-02-25T14:12:43.817Z,8.57
2019-02-25T14:15:11.563Z,7.23
2019-02-25T14:17:39.505Z,6.63
2019-02-25T14:20:07.247Z,7.67
2019-02-25T14:22:35.639Z,6.57
2019-02-25T14:25:03.843Z,8.43
2019-02-25T14:27:31.729Z,6.87
2019-02-25T14:29:59.477Z,6.80
2019-02-25T14:32:27.789Z,6.67
2019-02-25T14:34:56.723Z,6.33
2019-02-25T14:37:24.394Z,5.83
2019-02-25T14:39:54.377Z,7.00
2019-02-25T14:42:25.710Z,7.40
2019-02-25T14:44:52.236Z,6.93
2019-02-25T14:47:22.827Z,10.13
2019-02-25T14:49:49.636Z,5.53
2019-02-25T14:52:18.983Z,7.70
2019-02-25T14:54:46.771Z,6.40
2019-02-25T14:57:14.549Z,6.90
2019-02-25T14:59:42.298Z,5.40
2019-02-25T15:02:11.071Z,5.80
2019-02-25T15:04:39.708Z,8.70
2019-02-25T15:07:09.155Z,6.00
2019-02-25T15:09:39.304Z,5.50
2019-02-25T15:12:09.336Z,6.57
2019-02-25T15:14:36.714Z,10.17
2019-02-25T15:17:06.058Z,6.43
2019-02-25T15:19:34.459Z,6.13
2019-02-25T15:22:03.402Z,6.43
2019-02-25T15:24:31.143Z,6.83
2019-02-25T15:27:01.690Z,7.93
2019-02-25T15:29:28.285Z,6.83
2019-02-25T15:31:57.010Z,6.27
2019-02-25T15:34:25.725Z,9.43
2019-02-25T15:36:53.461Z,5.70
2019-02-25T15:39:21.117Z,8.17
2019-02-25T15:41:50.484Z,8.43
2019-02-25T15:44:18.224Z,7.20
2019-02-25T15:46:45.890Z,6.67
2019-02-25T15:49:16.902Z,8.27
2019-02-25T15:51:44.821Z,6.13
2019-02-25T15:54:12.389Z,8.53
2019-02-25T15:56:40.124Z,6.50
2019-02-25T15:59:07.862Z,7.17
2019-02-25T16:01:35.526Z,9.30
2019-02-25T16:04:04.674Z,7.90
2019-02-25T16:06:33.536Z,9.77
2019-02-25T16:09:03.081Z,10.50
2019-02-25T16:11:30.969Z,6.77
2019-02-25T16:14:00.645Z,7.23
2019-02-25T16:16:28.008Z,7.80
2019-02-25T16:18:55.768Z,6.43
2019-02-25T16:21:24.525Z,9.87
2019-02-25T16:23:53.421Z,9.97
2019-02-25T16:26:21.077Z,9.97
2019-02-25T16:28:50.316Z,8.30
2019-02-25T16:31:18.264Z,9.33
2019-02-25T16:33:47.070Z,10.37
2019-02-25T16:36:15.374Z,10.10
2019-02-25T16:38:43.075Z,9.40
2019-02-25T16:41:10.822Z,11.23
2019-02-25T16:43:38.562Z,8.33
2019-02-25T16:46:07.256Z,7.70
2019-02-25T16:48:36.205Z,9.73
2019-02-25T16:51:05.505Z,8.90
2019-02-25T16:53:36.936Z,7.73
2019-02-25T16:56:02.979Z,9.17
2019-02-25T16:58:32.470Z,8.83
2019-02-25T17:01:03.688Z,9.30
2019-02-25T17:03:31.044Z,8.47
2019-02-25T17:05:58.799Z,10.73
2019-02-25T17:08:28.123Z,7.03
2019-02-25T17:10:57.423Z,10.07
2019-02-25T17:13:25.259Z,10.03
2019-02-25T17:15:53.305Z,9.67
2019-02-25T17:18:21.036Z,10.53
2019-02-25T17:20:50.362Z,10.83
2019-02-25T17:23:18.326Z,9.03
2019-02-25T17:25:46.060Z,9.53
2019-02-25T17:28:15.322Z,8.37
2019-02-25T17:30:44.994Z,10.47
2019-02-25T17:33:14.648Z,10.33
2019-02-25T17:35:43.497Z,9.47
2019-02-25T17:38:11.571Z,12.87
2019-02-25T17:40:39.320Z,10.27
2019-02-25T17:43:08.614Z,12.50
2019-02-25T17:45:37.359Z,13.00
2019-02-25T17:48:08.365Z,13.03
2019-02-25T17:50:37.155Z,9.17
2019-02-25T17:53:07.444Z,12.10
2019-02-25T17:55:36.307Z,12.47
2019-02-25T17:58:04.123Z,14.83
2019-02-25T18:00:37.384Z,11.27
2019-02-25T18:03:04.530Z,11.77
2019-02-25T18:05:34.128Z,10.40
2019-02-25T18:08:03.025Z,9.47
2019-02-25T18:10:31.464Z,12.77
2019-02-25T18:13:01.145Z,9.53
2019-02-25T18:15:30.094Z,12.07
2019-02-25T18:17:58.047Z,10.00
2019-02-25T18:20:25.862Z,11.43
2019-02-25T18:22:54.013Z,11.50
2019-02-25T18:25:21.758Z,10.67
2019-02-25T18:27:50.094Z,12.70
2019-02-25T18:30:18.869Z,12.43
2019-02-25T18:32:46.805Z,11.27
2019-02-25T18:35:16.352Z,11.57
2019-02-25T18:37:44.203Z,10.37
2019-02-25T18:40:14.037Z,13.20
2019-02-25T18:42:43.287Z,10.30
2019-02-25T18:45:13.306Z,11.80
2019-02-25T18:47:40.667Z,12.83
2019-02-25T18:50:08.514Z,11.30
2019-02-25T18:52:38.311Z,15.30
2019-02-25T18:55:06.801Z,14.40
2019-02-25T18:57:34.975Z,10.50
2019-02-25T19:00:04.501Z,12.80
2019-02-25T19:02:33.411Z,11.50
2019-02-25T19:05:02.084Z,13.70
2019-02-25T19:07:31.539Z,14.30
2019-02-25T19:10:00.244Z,15.37
2019-02-25T19:12:27.998Z,16.93
2019-02-25T19:14:57.573Z,13.73
2019-02-25T19:17:25.878Z,17.13
2019-02-25T19:19:54.503Z,17.37
2019-02-25T19:22:23.823Z,20.10
2019-02-25T19:24:51.479Z,13.67
2019-02-25T19:27:19.220Z,20.47
2019-02-25T19:29:49.182Z,22.53
2019-02-25T19:32:16.333Z,26.27
2019-02-25T19:34:44.078Z,18.47
2019-02-25T19:37:12.653Z,17.87
2019-02-25T19:39:43.502Z,15.60
2019-02-25T19:42:15.195Z,20.83
2019-02-25T19:44:39.960Z,17.43
2019-02-25T19:47:09.628Z,15.93
2019-02-25T19:49:38.896Z,20.80
2019-02-25T19:52:07.155Z,16.03
2019-02-25T19:54:38.259Z,15.53
2019-02-25T19:57:05.098Z,14.27
2019-02-25T19:59:32.832Z,18.47
2019-02-25T20:02:00.487Z,17.23
2019-02-25T20:04:28.218Z,16.87
2019-02-25T20:06:56.704Z,19.40
2019-02-25T20:09:25.617Z,15.53
2019-02-25T20:11:53.362Z,18.70
2019-02-25T20:14:21.033Z,21.17
2019-02-25T20:16:48.781Z,19.13
2019-02-25T20:19:16.910Z,18.40
2019-02-25T20:21:45.654Z,18.23
2019-02-25T20:24:14.660Z,18.97
2019-02-25T20:26:43.666Z,21.83
2019-02-25T20:29:12.767Z,15.07
2019-02-25T20:31:40.571Z,17.67
2019-02-25T20:34:08.221Z,16.67
2019-02-25T20:36:36.263Z,19.13
2019-02-25T20:39:04.102Z,18.10
2019-02-25T20:41:31.762Z,18.70
2019-02-25T20:44:00.648Z,16.00
2019-02-25T20:46:30.733Z,15.77
2019-02-25T20:48:59.822Z,17.13
2019-02-25T20:51:29.852Z,21.37
2019-02-25T20:53:57.232Z,20.60
2019-02-25T20:56:26.602Z,18.67
2019-02-25T20:58:54.422Z,16.67
2019-02-25T21:01:22.076Z,15.73
2019-02-25T21:03:50.463Z,20.00
2019-02-25T21:06:21.125Z,16.57
2019-02-25T21:08:48.817Z,15.43
2019-02-25T21:11:16.475Z,18.07
2019-02-25T21:13:44.141Z,16.40
2019-02-25T21:16:11.804Z,19.33
2019-02-25T21:18:39.460Z,15.50
2019-02-25T21:21:07.771Z,19.27
2019-02-25T21:23:36.490Z,20.47
2019-02-25T21:26:06.369Z,19.67
2019-02-25T21:28:34.151Z,18.40
2019-02-25T21:31:02.862Z,21.33
2019-02-25T21:33:30.549Z,17.43
2019-02-25T21:35:58.282Z,14.03
2019-02-25T21:38:26.696Z,17.77
2019-02-25T21:40:55.358Z,17.30
2019-02-25T21:43:25.730Z,14.07
2019-02-25T21:45:54.280Z,17.80
2019-02-25T21:48:25.122Z,16.67
2019-02-25T21:50:51.107Z,14.60
2019-02-25T21:53:18.756Z,16.93
2019-02-25T21:55:46.409Z,17.50
2019-02-25T21:58:16.253Z,14.33
2019-02-25T22:00:43.418Z,23.43
2019-02-25T22:03:13.234Z,24.40
2019-02-25T22:05:40.518Z,16.87
2019-02-25T22:08:08.186Z,22.57
2019-02-25T22:10:37.579Z,20.30
2019-02-25T22:13:08.694Z,17.70
2019-02-25T22:15:36.180Z,18.53
2019-02-25T22:18:06.118Z,19.13
2019-02-25T22:20:35.674Z,14.63
2019-02-25T22:23:03.565Z,19.63
2019-02-25T22:25:32.021Z,18.47
2019-02-25T22:28:01.645Z,14.43
2019-02-25T22:30:29.043Z,16.63
2019-02-25T22:32:56.690Z,12.90
2019-02-25T22:35:24.338Z,15.27
2019-02-25T22:37:52.656Z,14.73
2019-02-25T22:40:21.375Z,19.40
2019-02-25T22:42:50.446Z,16.63
2019-02-25T22:45:18.943Z,22.23
2019-02-25T22:47:46.838Z,18.97
2019-02-25T22:50:15.308Z,18.20
2019-02-25T22:52:43.158Z,22.10
2019-02-25T22:55:12.947Z,16.33
2019-02-25T22:57:40.970Z,17.27
2019-02-25T23:00:09.839Z,19.10
2019-02-25T23:02:41.179Z,16.00
2019-02-25T23:05:08.180Z,15.80
2019-02-25T23:07:38.854Z,19.33
2019-02-25T23:10:06.508Z,16.23
2019-02-25T23:12:35.339Z,16.33
2019-02-25T23:15:05.574Z,18.70
2019-02-25T23:17:35.133Z,16.27
2019-02-25T23:20:02.663Z,15.63
2019-02-25T23:22:32.477Z,16.37
2019-02-25T23:25:00.410Z,14.40
2019-02-25T23:27:30.051Z,23.67
2019-02-25T23:29:57.437Z,12.37
2019-02-25T23:32:25.112Z,17.53
2019-02-25T23:34:54.969Z,17.20
2019-02-25T23:37:23.785Z,14.90
2019-02-25T23:39:51.483Z,17.10
2019-02-25T23:42:19.154Z,20.47
2019-02-25T23:44:46.819Z,17.73
2019-02-25T23:47:14.479Z,18.87
2019-02-25T23:49:43.869Z,17.50
2019-02-25T23:52:11.514Z,18.03
2019-02-25T23:54:39.174Z,19.63
2019-02-25T23:57:06.862Z,24.13
2019-02-25T23:59:34.524Z,17.87
